Time;durP1;ratioP1;P1;durP2;ratioP2;P2;SDS_P1;SDS_P2;PMS_P1;PMS_P2;Temp;Humidity;BMP_temperature;BMP_pressure;BME280_temperature;BME280_humidity;BME280_pressure;Samples;Min_cycle;Max_cycle;Signal;HPM_P1;HPM_P2
2022/07/25 00:01:58;;;;;;;119.90;109.27;;;19.10;1.00;;;;;;5028644;28;20620;-53
2022/07/25 00:04:23;;;;;;;123.57;112.27;;;19.10;1.00;;;;;;5045333;28;20603;-51
2022/07/25 00:06:49;;;;;;;124.37;113.10;;;19.10;1.00;;;;;;5035261;28;20270;-48
2022/07/25 00:09:15;;;;;;;128.83;117.30;;;19.10;1.00;;;;;;5030493;28;20237;-52
2022/07/25 00:11:41;;;;;;;133.00;121.30;;;19.10;1.00;;;;;;5029980;28;20273;-52
2022/07/25 00:14:06;;;;;;;131.97;119.63;;;19.10;1.00;;;;;;5032250;28;20205;-54
2022/07/25 00:16:32;;;;;;;136.77;124.87;;;19.10;1.00;;;;;;5031611;28;20438;-48
2022/07/25 00:18:58;;;;;;;134.07;122.17;;;19.10;1.00;;;;;;5030098;28;20665;-49
2022/07/25 00:21:23;;;;;;;134.97;123.10;;;19.00;1.00;;;;;;5031804;28;21005;-52
2022/07/25 00:23:49;;;;;;;137.40;125.07;;;19.10;1.00;;;;;;5029374;28;20186;-54
2022/07/25 00:26:15;;;;;;;141.47;128.50;;;19.00;1.00;;;;;;5031826;28;20171;-52
2022/07/25 00:28:41;;;;;;;141.43;128.63;;;19.00;1.00;;;;;;5033006;28;20187;-52
2022/07/25 00:31:07;;;;;;;141.67;128.77;;;19.00;1.00;;;;;;5050873;28;20491;-51
2022/07/25 00:33:33;;;;;;;137.57;125.87;;;19.00;1.00;;;;;;5025755;28;20907;-51
2022/07/25 00:35:58;;;;;;;139.63;127.43;;;19.00;1.00;;;;;;5032131;28;20629;-54
2022/07/25 00:38:24;;;;;;;137.87;125.83;;;19.00;1.00;;;;;;5032007;28;20209;-54
2022/07/25 00:40:49;;;;;;;145.43;132.30;;;19.00;1.00;;;;;;5033886;28;20187;-51
2022/07/25 00:43:15;;;;;;;144.80;131.80;;;18.90;1.00;;;;;;5044370;28;20186;-52
2022/07/25 00:45:41;;;;;;;145.80;132.80;;;18.90;1.00;;;;;;5032130;28;20320;-48
2022/07/25 00:48:07;;;;;;;147.87;134.63;;;18.90;11.90;;;;;;5029814;28;20199;-49
2022/07/25 00:50:34;;;;;;;145.83;132.77;;;18.90;14.20;;;;;;5039396;28;20213;-52
2022/07/25 00:52:59;;;;;;;145.93;132.77;;;18.90;45.30;;;;;;5036801;28;20464;-49
2022/07/25 00:55:25;;;;;;;147.80;134.70;;;18.90;99.90;;;;;;5041170;28;20472;-49
2022/07/25 00:57:51;;;;;;;144.77;131.70;;;18.80;99.90;;;;;;5043403;28;20186;-49
2022/07/25 01:00:17;;;;;;;142.00;129.50;;;18.80;99.90;;;;;;5027665;28;20481;-54
2022/07/25 01:02:43;;;;;;;139.90;127.50;;;18.80;99.90;;;;;;5034850;28;20198;-51
2022/07/25 01:05:09;;;;;;;142.47;129.57;;;18.80;99.90;;;;;;5049047;28;20416;-50
2022/07/25 01:07:36;;;;;;;140.97;128.37;;;18.80;99.90;;;;;;5036908;28;20187;-51
2022/07/25 01:10:02;;;;;;;140.27;127.87;;;18.70;1.00;;;;;;5025133;28;20441;-51
2022/07/25 01:12:27;;;;;;;141.23;129.30;;;18.70;1.00;;;;;;5029306;28;20441;-50
2022/07/25 01:14:53;;;;;;;141.47;129.00;;;18.70;1.00;;;;;;5034814;28;20504;-50
2022/07/25 01:17:18;;;;;;;138.27;126.17;;;18.60;1.00;;;;;;5039957;28;20182;-53
2022/07/25 01:19:46;;;;;;;141.70;129.33;;;18.70;1.00;;;;;;5030987;28;20195;-52
2022/07/25 01:22:11;;;;;;;138.53;126.03;;;18.60;1.00;;;;;;5027749;28;20176;-50
2022/07/25 01:24:38;;;;;;;137.20;125.07;;;18.60;1.00;;;;;;5043906;28;20458;-54
2022/07/25 01:27:04;;;;;;;136.97;124.47;;;18.60;1.00;;;;;;5029162;28;20195;-51
2022/07/25 01:29:29;;;;;;;135.03;123.37;;;18.60;1.00;;;;;;5046644;28;20448;-51
2022/07/25 01:31:55;;;;;;;136.00;123.50;;;18.60;35.10;;;;;;5034724;28;20206;-53
2022/07/25 01:34:20;;;;;;;134.77;122.40;;;18.60;1.00;;;;;;5026520;28;21057;-48
2022/07/25 01:36:46;;;;;;;133.77;121.77;;;18.60;1.00;;;;;;5029723;28;20187;-53
2022/07/25 01:39:12;;;;;;;128.87;117.23;;;18.60;1.00;;;;;;5041661;28;20189;-49
2022/07/25 01:41:37;;;;;;;127.73;116.40;;;18.60;1.00;;;;;;5030509;28;20202;-53
2022/07/25 01:44:03;;;;;;;124.40;113.17;;;18.50;1.00;;;;;;5029381;28;20228;-50
2022/07/25 01:46:29;;;;;;;127.47;116.27;;;18.50;99.90;;;;;;5035904;28;20248;-50
2022/07/25 01:48:54;;;;;;;126.70;115.47;;;18.40;99.90;;;;;;5029530;28;20966;-53
2022/07/25 01:51:20;;;;;;;122.87;112.07;;;18.50;55.70;;;;;;5039186;28;20186;-47
2022/07/25 01:53:46;;;;;;;121.10;110.50;;;18.50;99.90;;;;;;5037423;28;20622;-49
2022/07/25 01:56:12;;;;;;;123.17;111.60;;;18.40;99.90;;;;;;5040294;28;20532;-53
2022/07/25 01:58:38;;;;;;;118.73;108.70;;;18.40;99.90;;;;;;5028367;28;20571;-50
2022/07/25 02:01:03;;;;;;;120.37;109.63;;;18.50;99.90;;;;;;5028513;28;20187;-54
2022/07/25 02:03:29;;;;;;;114.30;104.50;;;18.50;99.90;;;;;;5034970;28;20190;-50
2022/07/25 02:05:56;;;;;;;112.17;102.30;;;18.50;99.90;;;;;;5048664;28;20293;-52
2022/07/25 02:08:22;;;;;;;111.40;101.50;;;18.40;99.90;;;;;;5032578;28;20182;-54
2022/07/25 02:10:48;;;;;;;109.73;99.43;;;18.40;1.00;;;;;;5028968;28;20926;-52
2022/07/25 02:13:13;;;;;;;105.00;95.47;;;18.40;1.00;;;;;;5043727;28;20447;-49
2022/07/25 02:15:39;;;;;;;103.97;94.33;;;18.40;1.00;;;;;;5042281;28;20481;-53
2022/07/25 02:18:04;;;;;;;99.30;90.60;;;18.30;1.00;;;;;;5041040;28;20187;-54
2022/07/25 02:20:30;;;;;;;96.33;87.70;;;18.30;1.00;;;;;;5041762;28;20265;-52
2022/07/25 02:22:56;;;;;;;97.97;89.57;;;18.30;17.60;;;;;;5032229;28;20236;-56
2022/07/25 02:25:21;;;;;;;94.83;86.57;;;18.30;1.00;;;;;;5028624;28;20205;-50
2022/07/25 02:27:47;;;;;;;91.57;83.50;;;18.30;99.90;;;;;;5028070;28;20187;-51
2022/07/25 02:30:13;;;;;;;90.47;82.60;;;18.20;75.60;;;;;;5035880;28;20184;-53
2022/07/25 02:32:38;;;;;;;90.23;82.40;;;18.30;1.00;;;;;;5033913;28;20746;-48
2022/07/25 02:35:06;;;;;;;87.57;79.90;;;18.20;99.90;;;;;;5030580;28;20236;-51
2022/07/25 02:37:31;;;;;;;85.93;78.33;;;18.20;99.90;;;;;;5029466;28;20233;-51
2022/07/25 02:39:57;;;;;;;80.30;73.20;;;18.20;99.90;;;;;;5043575;28;20470;-51
2022/07/25 02:42:23;;;;;;;78.17;71.13;;;18.20;99.90;;;;;;5048258;28;20709;-51
2022/07/25 02:44:48;;;;;;;77.80;70.97;;;18.30;1.00;;;;;;5035868;28;20186;-48
2022/07/25 02:47:14;;;;;;;74.37;67.17;;;18.30;1.00;;;;;;5047428;28;20194;-51
2022/07/25 02:49:39;;;;;;;72.20;65.70;;;18.40;99.90;;;;;;5039442;28;20193;-54
2022/07/25 02:52:05;;;;;;;70.57;64.33;;;18.40;1.00;;;;;;5033563;28;20197;-50
2022/07/25 02:54:31;;;;;;;72.67;66.27;;;18.40;99.90;;;;;;5033591;28;21108;-51
2022/07/25 02:56:56;;;;;;;70.60;63.73;;;18.50;99.90;;;;;;5027065;28;20213;-55
2022/07/25 02:59:22;;;;;;;71.07;64.30;;;18.50;99.90;;;;;;5038378;28;20861;-50
2022/07/25 03:01:47;;;;;;;68.83;62.30;;;18.50;10.50;;;;;;5045938;28;20190;-48
2022/07/25 03:04:13;;;;;;;68.43;62.30;;;18.60;1.00;;;;;;5041612;28;20212;-49
2022/07/25 03:06:38;;;;;;;65.63;59.80;;;18.60;1.00;;;;;;5038334;28;20170;-48
2022/07/25 03:09:04;;;;;;;67.50;61.43;;;18.60;1.00;;;;;;5027318;28;20269;-49
2022/07/25 03:11:29;;;;;;;62.90;57.30;;;18.60;1.00;;;;;;5044804;28;20243;-52
2022/07/25 03:13:56;;;;;;;64.47;58.33;;;18.60;1.00;;;;;;5028200;28;20194;-51
2022/07/25 03:16:22;;;;;;;61.90;56.47;;;18.60;1.00;;;;;;5028359;28;20228;-52
2022/07/25 03:18:47;;;;;;;61.57;55.93;;;18.70;1.00;;;;;;5027383;28;20894;-50
2022/07/25 03:21:13;;;;;;;57.87;52.67;;;18.60;1.00;;;;;;5027869;28;20195;-51
2022/07/25 03:23:39;;;;;;;57.90;52.90;;;18.70;1.00;;;;;;5027149;28;20182;-51
2022/07/25 03:26:04;;;;;;;55.97;51.13;;;18.70;1.00;;;;;;5026920;28;20194;-49
2022/07/25 03:28:30;;;;;;;52.30;47.53;;;18.70;99.90;;;;;;5035156;28;20194;-54
2022/07/25 03:30:56;;;;;;;50.33;45.73;;;18.80;99.90;;;;;;5053293;28;20416;-51
2022/07/25 03:33:21;;;;;;;52.27;47.07;;;18.80;99.90;;;;;;5031635;28;20199;-53
2022/07/25 03:35:47;;;;;;;49.67;45.30;;;18.90;99.90;;;;;;5032437;28;20229;-50
2022/07/25 03:38:13;;;;;;;49.77;45.23;;;18.90;99.90;;;;;;5038965;28;20189;-50
2022/07/25 03:40:38;;;;;;;45.57;41.57;;;18.90;99.90;;;;;;5032295;28;20928;-49
2022/07/25 03:43:04;;;;;;;45.00;40.97;;;19.00;15.20;;;;;;5044376;28;20198;-48
2022/07/25 03:45:30;;;;;;;43.90;39.90;;;19.00;53.10;;;;;;5031997;28;20205;-48
2022/07/25 03:47:55;;;;;;;45.03;41.03;;;19.00;24.00;;;;;;5034509;28;20191;-53
2022/07/25 03:50:21;;;;;;;43.40;39.50;;;19.10;1.00;;;;;;5030972;28;20202;-52
2022/07/25 03:52:46;;;;;;;41.70;38.00;;;19.10;1.00;;;;;;5042873;28;20198;-48
2022/07/25 03:55:12;;;;;;;38.63;35.33;;;19.20;1.00;;;;;;5034257;28;22199;-50
2022/07/25 03:57:38;;;;;;;40.20;36.80;;;19.20;1.00;;;;;;5039753;28;20189;-50
2022/07/25 04:00:06;;;;;;;39.30;36.10;;;19.30;1.00;;;;;;5037235;28;20233;-50
2022/07/25 04:02:32;;;;;;;37.47;34.37;;;19.30;1.00;;;;;;5038207;28;20290;-53
2022/07/25 04:04:57;;;;;;;40.67;37.10;;;19.40;1.00;;;;;;5043164;28;20560;-49
2022/07/25 04:07:23;;;;;;;39.70;36.27;;;19.60;99.90;;;;;;5034975;28;20938;-51
2022/07/25 04:09:48;;;;;;;40.27;36.47;;;19.70;99.90;;;;;;5041155;28;20178;-53
2022/07/25 04:12:14;;;;;;;39.20;35.80;;;19.70;99.90;;;;;;5034769;28;20191;-50
2022/07/25 04:14:39;;;;;;;41.00;37.47;;;19.80;99.90;;;;;;5038075;28;20252;-49
2022/07/25 04:17:05;;;;;;;39.90;36.50;;;19.80;99.90;;;;;;5034571;28;20194;-52
2022/07/25 04:19:31;;;;;;;41.47;37.30;;;19.90;99.90;;;;;;5032959;28;20187;-49
2022/07/25 04:21:56;;;;;;;40.10;36.60;;;19.90;99.90;;;;;;5032069;28;20237;-53
2022/07/25 04:24:22;;;;;;;41.67;38.00;;;20.00;99.90;;;;;;5041087;28;20304;-49
2022/07/25 04:26:47;;;;;;;40.00;36.60;;;20.10;99.90;;;;;;5036107;28;20568;-53
2022/07/25 04:29:13;;;;;;;42.10;38.57;;;20.10;99.90;;;;;;5038571;28;20200;-54
2022/07/25 04:31:39;;;;;;;41.27;37.87;;;20.20;99.90;;;;;;5026923;28;20286;-54
2022/07/25 04:34:04;;;;;;;42.10;38.40;;;20.20;99.90;;;;;;5037775;28;20190;-53
2022/07/25 04:36:30;;;;;;;41.73;38.13;;;20.20;99.90;;;;;;5039669;28;20194;-54
2022/07/25 04:38:56;;;;;;;40.30;36.90;;;20.30;99.90;;;;;;5033380;28;20183;-53
2022/07/25 04:41:21;;;;;;;38.73;35.53;;;20.40;99.90;;;;;;5040386;28;20560;-54
2022/07/25 04:43:47;;;;;;;38.93;35.47;;;20.50;76.10;;;;;;5033197;28;20250;-51
2022/07/25 04:46:17;;;;;;;35.77;32.77;;;20.70;3.30;;;;;;5033280;28;20201;-47
2022/07/25 04:48:43;;;;;;;33.63;30.93;;;20.80;1.00;;;;;;5041942;28;20196;-52
2022/07/25 04:51:10;;;;;;;34.00;31.03;;;20.90;1.00;;;;;;5030975;28;20488;-53
2022/07/25 04:53:35;;;;;;;32.03;29.40;;;21.10;1.00;;;;;;5050173;28;20811;-50
2022/07/25 04:56:01;;;;;;;31.50;28.87;;;21.20;1.00;;;;;;5031122;28;20478;-49
2022/07/25 04:58:26;;;;;;;32.50;29.60;;;21.40;1.00;;;;;;5035133;28;20212;-50
2022/07/25 05:00:52;;;;;;;33.17;30.40;;;21.50;1.00;;;;;;5030467;28;20706;-52
2022/07/25 05:03:17;;;;;;;31.20;28.37;;;21.70;1.00;;;;;;5047313;28;20185;-47
2022/07/25 05:05:43;;;;;;;31.73;29.00;;;21.80;1.00;;;;;;5045705;28;20204;-47
2022/07/25 05:08:09;;;;;;;31.40;28.77;;;21.90;1.00;;;;;;5033241;28;20674;-49
2022/07/25 05:10:34;;;;;;;32.17;29.47;;;22.00;1.00;;;;;;5030152;28;20322;-49
2022/07/25 05:13:00;;;;;;;32.20;29.40;;;22.10;1.00;;;;;;5030569;28;20188;-49
2022/07/25 05:15:25;;;;;;;32.93;29.97;;;22.20;1.00;;;;;;5038942;28;20347;-50
2022/07/25 05:17:51;;;;;;;34.10;31.20;;;22.30;1.00;;;;;;5040286;28;20196;-53
2022/07/25 05:20:17;;;;;;;36.03;32.93;;;22.40;1.00;;;;;;5037717;28;20660;-47
2022/07/25 05:22:43;;;;;;;37.03;33.87;;;22.50;99.90;;;;;;5035528;28;20312;-49
2022/07/25 05:25:11;;;;;;;37.43;34.17;;;22.50;99.90;;;;;;5050601;28;20305;-49
2022/07/25 05:27:37;;;;;;;37.93;34.93;;;22.60;99.90;;;;;;5037527;28;20194;-52
2022/07/25 05:30:04;;;;;;;36.20;32.77;;;22.60;99.90;;;;;;5036502;28;20948;-50
2022/07/25 05:32:31;;;;;;;36.40;33.20;;;22.70;99.90;;;;;;5039103;28;20443;-53
2022/07/25 05:34:56;;;;;;;35.03;32.30;;;22.70;99.90;;;;;;5035741;28;20456;-48
2022/07/25 05:37:22;;;;;;;37.13;33.83;;;22.80;99.90;;;;;;5037268;28;20981;-53
2022/07/25 05:39:47;;;;;;;34.97;32.13;;;22.90;99.90;;;;;;5037413;28;20182;-54
2022/07/25 05:42:13;;;;;;;36.63;33.43;;;23.00;99.90;;;;;;5027937;28;20634;-51
2022/07/25 05:44:39;;;;;;;37.33;34.13;;;23.20;99.90;;;;;;5032766;28;20221;-52
2022/07/25 05:47:11;;;;;;;36.17;33.07;;;23.20;99.90;;;;;;5037661;28;20198;-47
2022/07/25 05:49:37;;;;;;;34.83;32.00;;;23.30;99.90;;;;;;5047094;28;20182;-49
2022/07/25 05:52:04;;;;;;;35.30;32.60;;;23.30;99.90;;;;;;5031661;28;20429;-50
2022/07/25 05:54:29;;;;;;;34.60;31.70;;;23.40;99.90;;;;;;5033617;28;20464;-52
2022/07/25 05:56:55;;;;;;;35.60;32.53;;;23.50;99.90;;;;;;5034191;28;20433;-51
2022/07/25 05:59:20;;;;;;;37.03;33.63;;;23.60;99.90;;;;;;5031697;28;20222;-50
2022/07/25 06:01:46;;;;;;;33.87;31.07;;;23.60;99.90;;;;;;5036985;28;20183;-48
2022/07/25 06:04:11;;;;;;;36.47;33.27;;;23.60;99.90;;;;;;5044376;28;20186;-52
2022/07/25 06:06:37;;;;;;;35.97;33.10;;;23.70;99.90;;;;;;5032696;28;20209;-51
2022/07/25 06:09:03;;;;;;;38.30;34.90;;;23.80;99.90;;;;;;5041827;28;20220;-50
2022/07/25 06:11:30;;;;;;;37.07;33.77;;;23.80;99.90;;;;;;5035588;28;20195;-51
2022/07/25 06:13:55;;;;;;;38.40;35.20;;;24.00;99.90;;;;;;5041726;28;20182;-49
2022/07/25 06:16:21;;;;;;;37.10;34.13;;;24.00;99.90;;;;;;5047439;28;20779;-47
2022/07/25 06:18:47;;;;;;;38.63;35.40;;;24.10;99.90;;;;;;5047273;28;20182;-48
2022/07/25 06:21:12;;;;;;;38.03;34.93;;;24.20;99.90;;;;;;5028979;28;20190;-49
2022/07/25 06:23:38;;;;;;;37.80;34.73;;;24.30;99.90;;;;;;5029546;28;20277;-52
2022/07/25 06:26:07;;;;;;;37.77;34.67;;;24.30;99.90;;;;;;5024859;28;20190;-51
2022/07/25 06:28:32;;;;;;;36.67;33.77;;;24.40;99.90;;;;;;5021098;28;20175;-49
2022/07/25 06:30:58;;;;;;;36.23;33.23;;;24.40;99.90;;;;;;5026913;28;20441;-52
2022/07/25 06:33:24;;;;;;;36.27;33.47;;;24.50;99.90;;;;;;5025941;28;21016;-53
2022/07/25 06:35:49;;;;;;;36.60;33.63;;;24.60;99.90;;;;;;5027139;28;20246;-53
2022/07/25 06:38:15;;;;;;;35.27;32.20;;;24.70;1.00;;;;;;5026677;28;20289;-51
2022/07/25 06:40:40;;;;;;;33.37;30.50;;;24.80;99.90;;;;;;5027037;28;20194;-51
2022/07/25 06:43:06;;;;;;;34.63;31.93;;;24.90;1.00;;;;;;5044221;28;20567;-55
2022/07/25 06:45:32;;;;;;;30.40;28.00;;;25.00;43.30;;;;;;5038153;28;20221;-48
2022/07/25 06:47:58;;;;;;;30.17;27.77;;;25.00;58.00;;;;;;5046946;28;20200;-53
2022/07/25 06:50:23;;;;;;;28.07;25.93;;;25.10;59.10;;;;;;5034200;28;20214;-49
2022/07/25 06:52:49;;;;;;;28.50;26.37;;;25.20;59.30;;;;;;5039214;28;20580;-53
2022/07/25 06:55:15;;;;;;;26.10;23.80;;;25.30;59.30;;;;;;5042890;28;20210;-54
2022/07/25 06:57:41;;;;;;;27.80;25.13;;;25.40;59.00;;;;;;5046944;28;20266;-49
2022/07/25 07:00:09;;;;;;;25.80;23.90;;;25.50;58.90;;;;;;5026918;28;20819;-50
2022/07/25 07:02:47;;;;;;;24.57;22.47;;;25.60;58.80;;;;;;5027060;28;20432;-54
2022/07/25 07:05:12;;;;;;;22.77;20.87;;;25.70;58.40;;;;;;5025630;28;20796;-60
2022/07/25 07:07:38;;;;;;;21.47;19.67;;;25.90;58.30;;;;;;5034906;28;20425;-59
2022/07/25 07:10:04;;;;;;;21.43;19.83;;;25.90;57.70;;;;;;5035580;28;20194;-60
2022/07/25 07:12:29;;;;;;;18.80;17.40;;;26.10;57.30;;;;;;5046598;28;20179;-60
2022/07/25 07:14:55;;;;;;;18.00;16.70;;;26.30;56.80;;;;;;5042334;28;20467;-60
2022/07/25 07:17:20;;;;;;;17.83;16.27;;;26.30;56.30;;;;;;5026153;28;20214;-59
2022/07/25 07:19:46;;;;;;;16.13;14.93;;;26.50;56.30;;;;;;5025389;28;20220;-60
2022/07/25 07:22:11;;;;;;;16.70;15.30;;;26.70;54.70;;;;;;5035098;28;20292;-59
2022/07/25 07:24:37;;;;;;;14.73;13.63;;;26.70;54.60;;;;;;5045680;28;20238;-55
2022/07/25 07:27:03;;;;;;;15.17;13.97;;;26.80;53.90;;;;;;5032421;28;20217;-59
2022/07/25 07:29:28;;;;;;;15.03;13.93;;;27.00;53.80;;;;;;5046512;28;20190;-60
2022/07/25 07:31:54;;;;;;;14.70;13.50;;;27.10;53.70;;;;;;5028937;28;20199;-61
2022/07/25 07:34:20;;;;;;;15.07;13.60;;;27.30;52.80;;;;;;5020045;28;20360;-61
2022/07/25 07:36:45;;;;;;;14.77;13.70;;;27.30;53.00;;;;;;5019433;28;20225;-59
2022/07/25 07:39:11;;;;;;;14.47;13.37;;;27.50;52.10;;;;;;5046111;28;20452;-60
2022/07/25 07:41:37;;;;;;;13.60;12.60;;;27.60;51.90;;;;;;5046735;28;21105;-53
2022/07/25 07:44:04;;;;;;;12.17;11.37;;;27.70;51.00;;;;;;5043989;28;20218;-52
2022/07/25 07:46:29;;;;;;;12.53;11.63;;;27.90;51.00;;;;;;5026339;28;20206;-52
2022/07/25 07:48:55;;;;;;;12.17;11.27;;;28.00;50.80;;;;;;5045045;28;20899;-53
2022/07/25 07:51:20;;;;;;;12.33;11.33;;;28.20;50.20;;;;;;5026463;28;20848;-53
2022/07/25 07:56:30;;;;;;;12.20;11.40;;;28.50;48.80;;;;;;5046362;28;20213;-49
2022/07/25 07:58:56;;;;;;;11.57;10.87;;;28.50;48.30;;;;;;5037772;28;20469;-47
2022/07/25 08:01:21;;;;;;;11.63;10.83;;;28.70;47.80;;;;;;5031997;28;20199;-49
2022/07/25 08:03:47;;;;;;;11.23;10.53;;;28.80;47.40;;;;;;5036436;28;20190;-52
2022/07/25 08:06:12;;;;;;;12.33;11.50;;;28.90;47.00;;;;;;5047955;28;20182;-54
2022/07/25 08:08:38;;;;;;;12.30;11.40;;;29.10;46.80;;;;;;5047940;28;20194;-51
2022/07/25 08:11:04;;;;;;;12.27;11.17;;;29.20;46.10;;;;;;5031662;28;20207;-50
2022/07/25 08:13:30;;;;;;;11.93;11.10;;;29.30;45.50;;;;;;5047983;28;20186;-53
2022/07/25 08:15:58;;;;;;;12.40;11.50;;;29.50;45.20;;;;;;5031790;28;20299;-49
2022/07/25 08:18:25;;;;;;;12.53;11.77;;;29.60;44.80;;;;;;5030283;28;20571;-49
2022/07/25 08:20:51;;;;;;;13.30;12.40;;;29.80;44.60;;;;;;5031810;28;20460;-52
2022/07/25 08:23:18;;;;;;;11.63;10.83;;;30.00;43.90;;;;;;5026917;28;20553;-53
2022/07/25 08:25:45;;;;;;;11.10;10.30;;;30.10;42.80;;;;;;5050186;28;20432;-52
2022/07/25 08:28:12;;;;;;;11.10;10.20;;;30.20;42.40;;;;;;5051071;28;21241;-50
2022/07/25 08:30:39;;;;;;;12.37;11.47;;;30.40;42.00;;;;;;5039748;28;20451;-51
2022/07/25 08:33:09;;;;;;;11.63;10.83;;;30.50;42.40;;;;;;5040357;28;20558;-54
2022/07/25 08:35:35;;;;;;;12.70;11.90;;;30.50;41.30;;;;;;5041479;28;20468;-50
2022/07/25 08:38:02;;;;;;;12.67;11.87;;;30.50;41.60;;;;;;5037179;28;20870;-54
2022/07/25 08:40:29;;;;;;;12.30;11.47;;;30.60;41.40;;;;;;5050532;28;20873;-53
2022/07/25 08:42:55;;;;;;;11.50;10.70;;;30.70;41.10;;;;;;5041594;28;20440;-52
2022/07/25 08:45:21;;;;;;;11.93;11.20;;;30.90;40.70;;;;;;5028950;28;20441;-54
2022/07/25 08:47:49;;;;;;;11.73;11.00;;;31.00;40.50;;;;;;5048657;28;20818;-53
2022/07/25 08:50:17;;;;;;;11.53;10.60;;;31.10;40.20;;;;;;5034133;28;20921;-50
2022/07/25 08:52:46;;;;;;;11.80;11.00;;;31.20;39.20;;;;;;5042168;28;20489;-54
2022/07/25 08:55:15;;;;;;;12.13;11.20;;;31.20;39.10;;;;;;5042930;28;20881;-49
2022/07/25 08:57:44;;;;;;;12.33;11.53;;;31.30;38.40;;;;;;5047064;28;21025;-53
2022/07/25 09:00:12;;;;;;;11.67;10.77;;;31.50;39.00;;;;;;5029890;28;20568;-50
2022/07/25 09:02:38;;;;;;;11.87;11.07;;;31.60;38.10;;;;;;5046738;28;20493;-49
2022/07/25 09:05:04;;;;;;;13.17;12.20;;;31.60;37.20;;;;;;5030121;28;20421;-55
2022/07/25 09:07:36;;;;;;;13.27;12.27;;;31.60;36.80;;;;;;5048423;28;20427;-51
2022/07/25 09:10:21;;;;;;;12.20;11.27;;;31.70;36.70;;;;;;5042051;28;20429;-52
2022/07/25 09:12:57;;;;;;;12.30;11.27;;;31.70;36.00;;;;;;5035410;28;20452;-53
2022/07/25 09:15:27;;;;;;;12.50;11.53;;;31.70;36.00;;;;;;5047667;28;20464;-54
2022/07/25 09:17:53;;;;;;;12.67;11.67;;;31.90;35.70;;;;;;5038456;28;20446;-53
2022/07/25 09:20:20;;;;;;;13.37;12.47;;;31.90;35.70;;;;;;5022164;28;20457;-51
2022/07/25 09:22:46;;;;;;;12.77;11.90;;;32.10;34.70;;;;;;5028915;28;20578;-52
2022/07/25 09:25:30;;;;;;;12.17;11.27;;;32.30;34.60;;;;;;5035691;28;20422;-53
2022/07/25 09:28:13;;;;;;;12.43;11.43;;;32.30;33.70;;;;;;5048237;28;20440;-50
2022/07/25 09:30:40;;;;;;;11.73;11.03;;;32.40;33.80;;;;;;5032817;28;20806;-50
2022/07/25 09:33:06;;;;;;;12.70;11.93;;;32.40;33.50;;;;;;5036890;28;20449;-55
2022/07/25 09:35:37;;;;;;;12.80;11.87;;;32.50;33.20;;;;;;5046490;28;20487;-50
2022/07/25 09:38:14;;;;;;;11.63;10.93;;;32.50;33.70;;;;;;5034184;28;20428;-55
2022/07/25 09:40:40;;;;;;;12.20;11.40;;;32.60;33.80;;;;;;5048296;28;20460;-54
2022/07/25 09:43:06;;;;;;;12.30;11.50;;;32.60;33.20;;;;;;5048325;28;20828;-53
2022/07/25 09:45:32;;;;;;;13.27;12.37;;;32.70;33.30;;;;;;5032094;28;20436;-52
2022/07/25 09:48:00;;;;;;;11.43;10.80;;;32.80;33.30;;;;;;5047864;28;20429;-52
2022/07/25 09:50:28;;;;;;;12.07;11.37;;;33.00;31.60;;;;;;5048055;28;20193;-55
2022/07/25 09:52:56;;;;;;;12.43;11.57;;;33.10;31.00;;;;;;5048604;28;20429;-52
2022/07/25 09:55:22;;;;;;;13.40;12.50;;;33.30;31.10;;;;;;5047963;28;20465;-49
2022/07/25 09:57:51;;;;;;;12.90;12.10;;;33.20;31.10;;;;;;5047972;28;20503;-50
2022/07/25 10:00:24;;;;;;;12.80;12.00;;;33.30;31.00;;;;;;5047516;28;20992;-55
2022/07/25 10:03:24;;;;;;;12.70;11.90;;;33.30;30.40;;;;;;5047886;28;20518;-53
2022/07/25 10:06:03;;;;;;;12.60;11.80;;;33.40;29.60;;;;;;5048131;28;20420;-54
2022/07/25 10:08:34;;;;;;;12.40;11.60;;;33.30;30.00;;;;;;5029332;28;20465;-55
2022/07/25 10:11:00;;;;;;;12.00;11.10;;;33.10;30.00;;;;;;5037493;28;20432;-54
2022/07/25 10:13:33;;;;;;;12.70;11.70;;;33.10;30.20;;;;;;5047338;28;20436;-55
2022/07/25 10:15:59;;;;;;;12.03;11.33;;;33.20;30.00;;;;;;5047829;28;20217;-55
2022/07/25 10:18:27;;;;;;;11.40;10.70;;;33.40;29.50;;;;;;5032318;28;20424;-54
2022/07/25 10:21:09;;;;;;;12.30;11.50;;;33.50;29.40;;;;;;5045682;28;20436;-51
2022/07/25 10:23:35;;;;;;;12.80;12.00;;;33.70;29.20;;;;;;5018770;28;21071;-51
2022/07/25 10:26:02;;;;;;;12.10;11.40;;;33.60;29.00;;;;;;5028435;28;20422;-54
2022/07/25 10:28:38;;;;;;;12.60;11.90;;;33.60;28.90;;;;;;5047350;28;20240;-52
2022/07/25 10:31:15;;;;;;;12.80;11.80;;;33.80;28.60;;;;;;5047422;28;20446;-50
2022/07/25 10:33:41;;;;;;;11.73;11.03;;;33.80;28.70;;;;;;5037694;28;20416;-53
2022/07/25 10:36:09;;;;;;;10.87;10.17;;;33.90;27.60;;;;;;5032822;28;20464;-52
2022/07/25 10:38:39;;;;;;;12.00;11.20;;;33.90;27.30;;;;;;5026630;28;20434;-53
2022/07/25 10:41:07;;;;;;;13.37;12.47;;;33.90;26.70;;;;;;5026553;28;21089;-52
2022/07/25 10:43:38;;;;;;;12.40;11.70;;;34.00;26.50;;;;;;5026755;28;20920;-53
2022/07/25 10:46:14;;;;;;;12.50;11.70;;;33.90;27.10;;;;;;5026421;28;20453;-51
2022/07/25 10:48:40;;;;;;;11.50;10.80;;;33.90;27.20;;;;;;5026613;28;20413;-54
2022/07/25 10:51:08;;;;;;;12.00;11.30;;;33.80;26.60;;;;;;5026940;28;20445;-55
2022/07/25 10:53:43;;;;;;;12.80;12.10;;;33.90;26.60;;;;;;5026862;28;20434;-51
2022/07/25 10:56:15;;;;;;;13.00;12.20;;;34.00;26.20;;;;;;5026147;28;20460;-51
2022/07/25 10:58:53;;;;;;;11.87;11.07;;;34.10;25.90;;;;;;5023620;28;20461;-51
2022/07/25 11:01:24;;;;;;;12.33;11.53;;;33.90;26.50;;;;;;5037841;28;20535;-54
2022/07/25 11:03:52;;;;;;;11.83;11.13;;;33.90;26.90;;;;;;5046932;28;20792;-53
2022/07/25 11:06:31;;;;;;;12.40;11.60;;;34.00;26.70;;;;;;5047084;28;20447;-53
2022/07/25 11:08:59;;;;;;;12.23;11.40;;;34.00;26.70;;;;;;5046905;28;20412;-53
2022/07/25 11:11:52;;;;;;;11.87;11.17;;;34.00;26.60;;;;;;5046516;28;20427;-52
2022/07/25 11:14:21;;;;;;;11.70;10.90;;;34.00;26.00;;;;;;5022087;28;20435;-54
2022/07/25 11:16:49;;;;;;;12.10;11.40;;;33.90;25.80;;;;;;5036639;28;20440;-53
2022/07/25 11:19:28;;;;;;;11.93;11.07;;;33.80;26.10;;;;;;5037140;28;20420;-55
2022/07/25 11:21:56;;;;;;;11.70;10.90;;;34.00;25.50;;;;;;5035485;28;20456;-53
2022/07/25 11:24:36;;;;;;;12.50;11.70;;;33.90;25.60;;;;;;5039838;28;20428;-53
2022/07/25 11:27:03;;;;;;;12.00;11.20;;;34.10;25.80;;;;;;5046398;28;20459;-54
2022/07/25 11:29:29;;;;;;;12.37;11.47;;;34.30;25.40;;;;;;5046148;28;20417;-52
2022/07/25 11:32:00;;;;;;;12.57;11.77;;;34.50;25.20;;;;;;5041037;28;20420;-54
2022/07/25 11:34:34;;;;;;;12.30;11.43;;;34.80;25.20;;;;;;5041966;28;20179;-50
2022/07/25 11:37:03;;;;;;;12.20;11.40;;;34.80;25.00;;;;;;5046877;28;20436;-51
2022/07/25 11:39:32;;;;;;;11.87;11.17;;;35.20;25.00;;;;;;5046656;28;20412;-55
2022/07/25 11:42:09;;;;;;;12.20;11.17;;;35.30;24.50;;;;;;5046435;28;20417;-52
2022/07/25 11:44:39;;;;;;;12.20;11.50;;;35.30;24.10;;;;;;5046440;28;20455;-54
2022/07/25 11:47:07;;;;;;;12.50;11.50;;;35.20;24.10;;;;;;5046778;28;20460;-54
2022/07/25 11:49:47;;;;;;;11.57;10.77;;;35.10;24.30;;;;;;5048563;28;20424;-54
2022/07/25 11:52:29;;;;;;;11.73;11.00;;;35.10;24.60;;;;;;5050235;28;20482;-52
2022/07/25 11:55:07;;;;;;;12.23;11.43;;;35.30;23.80;;;;;;5050385;28;20463;-53
2022/07/25 11:57:35;;;;;;;11.90;11.10;;;35.20;23.50;;;;;;5050106;28;20424;-54
2022/07/25 12:00:05;;;;;;;12.73;11.93;;;34.80;24.00;;;;;;5050041;28;20663;-55
2022/07/25 12:02:34;;;;;;;11.67;10.87;;;34.70;25.20;;;;;;5049871;28;20444;-54
2022/07/25 12:05:05;;;;;;;12.47;11.63;;;34.90;25.80;;;;;;5050158;28;20417;-55
2022/07/25 12:07:39;;;;;;;13.17;12.10;;;35.30;25.10;;;;;;5049932;28;20481;-53
2022/07/25 12:10:07;;;;;;;12.30;11.60;;;35.50;23.60;;;;;;5049894;28;20412;-53
2022/07/25 12:12:43;;;;;;;11.77;11.03;;;35.50;23.90;;;;;;5049983;28;20566;-52
2022/07/25 12:15:14;;;;;;;12.17;11.37;;;35.70;22.80;;;;;;5049889;28;20460;-53
2022/07/25 12:17:42;;;;;;;12.40;11.50;;;35.40;23.20;;;;;;5049909;28;20420;-51
2022/07/25 12:20:23;;;;;;;11.17;10.37;;;35.50;23.20;;;;;;5048450;28;20443;-52
2022/07/25 12:22:51;;;;;;;12.00;11.20;;;35.50;22.80;;;;;;5032842;28;20422;-55
2022/07/25 12:25:17;;;;;;;11.80;11.00;;;35.60;22.70;;;;;;5049695;28;20428;-51
2022/07/25 12:27:43;;;;;;;11.93;11.23;;;35.60;22.40;;;;;;5049762;28;20510;-54
2022/07/25 12:30:10;;;;;;;12.43;11.63;;;35.70;22.10;;;;;;5049566;28;20223;-51